Time;durP1;ratioP1;P1;durP2;ratioP2;P2;SDS_P1;SDS_P2;PMS_P1;PMS_P2;Temp;Humidity;BMP_temperature;BMP_pressure;BME280_temperature;BME280_humidity;BME280_pressure;Samples;Min_cycle;Max_cycle;Signal;HPM_P1;HPM_P2
2022/10/12 00:01:06;;;;;;;17.00;10.40;;;;;;;10.30;81.90;99554.49;102146;1301;76747;-24
2022/10/12 00:03:33;;;;;;;16.50;10.30;;;;;;;10.12;82.47;99552.51;102200;1301;74119;-25
2022/10/12 00:06:01;;;;;;;13.90;7.80;;;;;;;9.99;83.16;99553.77;102076;1305;63828;-25
2022/10/12 00:08:28;;;;;;;14.00;8.40;;;;;;;10.44;82.95;99556.96;102206;1301;62849;-25
2022/10/12 00:10:55;;;;;;;15.40;9.20;;;;;;;11.00;81.22;99559.85;102120;1295;75429;-25
2022/10/12 00:13:22;;;;;;;15.50;9.80;;;;;;;11.03;80.45;99559.79;102223;1294;76756;-25
2022/10/12 00:15:49;;;;;;;16.50;10.30;;;;;;;10.83;81.20;99556.07;102085;1302;75371;-25
2022/10/12 00:18:16;;;;;;;15.80;11.10;;;;;;;10.68;81.49;99559.21;102074;1294;61826;-25
2022/10/12 00:20:43;;;;;;;17.70;11.10;;;;;;;10.53;82.25;99558.27;102146;1298;61098;-25
2022/10/12 00:23:10;;;;;;;14.10;6.80;;;;;;;10.37;83.20;99562.16;101424;1300;1117594;-25
2022/10/12 00:25:38;;;;;;;16.20;9.10;;;;;;;10.79;82.68;99560.52;102171;1302;76924;-25
2022/10/12 00:28:05;;;;;;;13.30;9.10;;;;;;;11.30;80.81;99564.39;102112;1302;75224;-25
2022/10/12 00:30:33;;;;;;;14.00;10.20;;;;;;;11.33;80.08;99566.27;102238;1300;62956;-25
2022/10/12 00:33:00;;;;;;;14.20;10.00;;;;;;;11.04;81.17;99565.27;102068;1304;62966;-25
2022/10/12 00:35:28;;;;;;;13.60;9.30;;;;;;;10.87;82.10;99565.16;102159;1301;76380;-25
2022/10/12 00:37:55;;;;;;;15.10;10.40;;;;;;;10.65;83.36;99568.69;102185;1295;76657;-25
2022/10/12 00:40:22;;;;;;;13.50;7.30;;;;;;;10.49;84.23;99570.70;102184;1301;75505;-25
2022/10/12 00:42:49;;;;;;;14.00;7.80;;;;;;;10.88;83.38;99572.70;102115;1302;63085;-25
2022/10/12 00:45:16;;;;;;;14.70;9.70;;;;;;;11.39;81.40;99573.05;102076;1301;61738;-24
2022/10/12 00:47:48;;;;;;;16.40;11.10;;;;;;;11.32;80.72;99575.67;102070;1300;75065;-25
2022/10/12 00:50:23;;;;;;;15.70;9.50;;;;;;;11.10;81.46;99573.52;102021;1293;75296;-25
2022/10/12 00:52:57;;;;;;;15.80;10.00;;;;;;;10.90;82.34;99573.28;101989;1297;74967;-24
2022/10/12 00:55:24;;;;;;;16.10;10.50;;;;;;;10.59;83.67;99572.77;101861;1296;62918;-24
2022/10/12 00:57:52;;;;;;;13.70;8.80;;;;;;;10.40;84.76;99576.34;102167;1302;62953;-24
2022/10/12 01:00:19;;;;;;;14.00;8.40;;;;;;;10.80;84.00;99574.01;102256;1301;75742;-24
2022/10/12 01:02:46;;;;;;;15.10;9.50;;;;;;;11.20;81.73;99577.11;102113;1298;76864;-24
2022/10/12 01:05:14;;;;;;;14.60;9.10;;;;;;;11.16;81.33;99577.73;102052;1302;73947;-24
2022/10/12 01:07:41;;;;;;;14.80;9.60;;;;;;;10.96;82.01;99573.52;102238;1301;61772;-24
2022/10/12 01:10:08;;;;;;;17.20;10.20;;;;;;;10.72;83.01;99580.11;102028;1299;61859;-24
2022/10/12 01:12:35;;;;;;;12.50;7.60;;;;;;;10.54;84.52;99580.61;101915;1299;76470;-24
2022/10/12 01:15:03;;;;;;;12.80;7.90;;;;;;;10.87;83.53;99581.31;102186;1298;76944;-25
2022/10/12 01:17:35;;;;;;;11.50;8.10;;;;;;;11.27;81.36;99583.85;102134;1302;74924;-24
2022/10/12 01:20:18;;;;;;;11.40;8.60;;;;;;;11.23;80.84;99587.47;102026;1295;62201;-24
2022/10/12 01:23:12;;;;;;;13.70;10.00;;;;;;;11.01;81.36;99587.20;101988;1304;62717;-24
2022/10/12 01:26:17;;;;;;;16.40;9.40;;;;;;;10.69;83.07;99588.86;101680;1301;75413;-24
2022/10/12 01:28:54;;;;;;;10.50;7.10;;;;;;;10.44;84.26;99591.55;102133;1299;76002;-24
2022/10/12 01:31:34;;;;;;;9.30;7.00;;;;;;;10.92;82.74;99588.92;102133;1294;75214;-24
2022/10/12 01:34:10;;;;;;;14.10;8.60;;;;;;;11.18;81.15;99586.11;102144;1299;61614;-24
2022/10/12 01:36:43;;;;;;;16.50;8.80;;;;;;;11.07;80.74;99585.23;102116;1301;62515;-24
2022/10/12 01:39:33;;;;;;;12.60;8.70;;;;;;;10.82;81.58;99585.28;101971;1299;74398;-24
2022/10/12 01:42:03;;;;;;;13.90;9.20;;;;;;;10.56;81.68;99584.08;101942;1298;75826;-24
2022/10/12 01:44:31;;;;;;;10.60;6.70;;;;;;;10.28;82.80;99585.84;101915;1303;75078;-24
2022/10/12 01:46:58;;;;;;;9.40;7.20;;;;;;;10.60;82.90;99590.17;102267;1294;62834;-24
2022/10/12 01:49:27;;;;;;;18.00;8.60;;;;;;;11.01;81.08;99593.27;102233;1301;61559;-24
2022/10/12 01:52:21;;;;;;;13.50;8.60;;;;;;;10.97;80.41;99592.56;102007;1304;75315;-24
2022/10/12 01:55:00;;;;;;;12.00;7.90;;;;;;;10.66;80.91;99591.16;102145;1299;75712;-24
2022/10/12 01:57:53;;;;;;;14.60;9.60;;;;;;;10.27;82.15;99589.21;102129;1307;75338;-24
2022/10/12 02:00:20;;;;;;;15.10;9.60;;;;;;;9.92;83.57;99590.98;102071;1301;62759;-24
2022/10/12 02:03:13;;;;;;;8.70;5.20;;;;;;;9.71;84.42;99593.69;102178;1301;61161;-24
2022/10/12 02:05:48;;;;;;;9.00;6.20;;;;;;;10.17;83.31;99595.83;102246;1301;75275;-24
2022/10/12 02:08:23;;;;;;;11.50;7.60;;;;;;;10.52;81.70;99599.29;101938;1301;77228;-24
2022/10/12 02:10:54;;;;;;;12.90;7.00;;;;;;;10.40;81.07;99599.42;102137;1302;74327;-24
2022/10/12 02:13:23;;;;;;;8.90;6.50;;;;;;;10.13;81.61;99604.06;101925;1297;62677;-25
2022/10/12 02:15:50;;;;;;;18.00;8.10;;;;;;;9.85;82.01;99600.64;102124;1299;61164;-24
2022/10/12 02:18:17;;;;;;;10.30;8.20;;;;;;;9.61;83.19;99600.59;102251;1299;76400;-24
2022/10/12 02:20:48;;;;;;;9.70;6.20;;;;;;;9.44;84.07;99602.98;101978;1299;75882;-24
2022/10/12 02:23:15;;;;;;;9.50;6.90;;;;;;;9.83;83.42;99604.30;101940;1293;75234;-24
2022/10/12 02:25:42;;;;;;;12.00;7.90;;;;;;;10.28;82.01;99603.63;102114;1299;61790;-24
2022/10/12 02:28:11;;;;;;;10.00;7.60;;;;;;;10.26;80.94;99602.83;101954;1299;61895;-24
2022/10/12 02:30:44;;;;;;;10.40;7.40;;;;;;;10.03;81.36;99602.39;102013;1299;75356;-24
2022/10/12 02:33:20;;;;;;;11.20;7.40;;;;;;;9.75;81.99;99601.52;101985;1297;75857;-24
2022/10/12 02:35:51;;;;;;;12.40;7.50;;;;;;;9.44;82.47;99601.55;101934;1303;74224;-24
2022/10/12 02:38:21;;;;;;;10.60;5.30;;;;;;;9.17;83.34;99604.93;101895;1300;64516;-24
2022/10/12 02:41:03;;;;;;;9.00;5.20;;;;;;;9.52;83.38;99608.45;102092;1299;62867;-24
2022/10/12 02:43:37;;;;;;;12.60;7.20;;;;;;;9.98;81.58;99612.26;102173;1291;76352;-24
2022/10/12 02:46:07;;;;;;;10.80;7.40;;;;;;;9.96;81.26;99616.08;101950;1299;76940;-24
2022/10/12 02:48:35;;;;;;;11.50;7.90;;;;;;;9.72;81.65;99616.66;101953;1297;75166;-24
2022/10/12 02:51:02;;;;;;;11.70;7.80;;;;;;;9.48;82.26;99615.82;102036;1292;62889;-24
2022/10/12 02:53:29;;;;;;;11.30;7.30;;;;;;;9.26;82.46;99619.77;102006;1297;61783;-24
2022/10/12 02:56:10;;;;;;;7.30;5.30;;;;;;;9.03;82.89;99620.38;102025;1297;76314;-24
2022/10/12 02:58:37;;;;;;;7.80;4.70;;;;;;;9.48;82.85;99625.89;102147;1302;75842;-24
2022/10/12 03:01:04;;;;;;;9.10;6.60;;;;;;;9.91;80.89;99626.98;102223;1298;73372;-24
2022/10/12 03:03:31;;;;;;;11.70;6.60;;;;;;;9.87;80.26;99627.60;101998;1298;61899;-24
2022/10/12 03:05:59;;;;;;;10.10;6.80;;;;;;;9.62;80.52;99628.41;102104;1302;62855;-24
2022/10/12 03:08:26;;;;;;;10.60;6.70;;;;;;;9.34;81.36;99632.73;102216;1302;75398;-24
2022/10/12 03:10:53;;;;;;;10.10;7.70;;;;;;;9.10;82.61;99635.14;102130;1304;75461;-24
2022/10/12 03:13:20;;;;;;;7.10;5.40;;;;;;;8.94;83.58;99636.88;102221;1299;75279;-24
2022/10/12 03:15:47;;;;;;;11.30;6.20;;;;;;;9.36;83.83;99641.39;102164;1304;61595;-25
2022/10/12 03:18:14;;;;;;;9.30;7.30;;;;;;;9.90;82.14;99640.39;102200;1301;62597;-24
2022/10/12 03:20:41;;;;;;;11.70;7.50;;;;;;;9.95;81.28;99647.47;102199;1301;75044;-24
2022/10/12 03:23:08;;;;;;;13.70;8.10;;;;;;;9.75;81.87;99650.09;102312;1298;75778;-24
2022/10/12 03:25:35;;;;;;;14.10;8.80;;;;;;;9.52;82.54;99649.87;102207;1295;73944;-24
2022/10/12 03:28:03;;;;;;;14.40;8.70;;;;;;;9.26;83.19;99646.03;102228;1291;61048;-24
2022/10/12 03:30:30;;;;;;;8.20;6.00;;;;;;;9.08;84.15;99646.75;102121;1302;62626;-24
2022/10/12 03:32:57;;;;;;;8.90;6.00;;;;;;;9.55;83.58;99646.41;102140;1301;75165;-24
2022/10/12 03:35:24;;;;;;;9.00;6.80;;;;;;;10.10;81.69;99647.88;102164;1297;75823;-24
2022/10/12 03:37:51;;;;;;;11.50;7.80;;;;;;;10.12;80.87;99649.23;102186;1300;74927;-24
2022/10/12 03:40:18;;;;;;;10.50;7.60;;;;;;;9.91;81.10;99646.88;102047;1304;62937;-24
2022/10/12 03:42:45;;;;;;;11.00;8.50;;;;;;;9.56;83.29;99645.79;102068;1300;62626;-24
2022/10/12 03:45:12;;;;;;;13.40;8.30;;;;;;;9.34;84.45;99650.58;102200;1301;76440;-24
2022/10/12 03:47:39;;;;;;;11.80;6.10;;;;;;;9.22;85.26;99649.66;102134;1300;76815;-24
2022/10/12 03:50:08;;;;;;;7.60;5.50;;;;;;;9.65;84.88;99653.73;102150;1300;75200;-24
2022/10/12 03:52:34;;;;;;;12.00;6.90;;;;;;;10.18;82.90;99658.39;102184;1300;62884;-24
2022/10/12 03:55:01;;;;;;;11.00;7.30;;;;;;;10.22;81.65;99660.40;102231;1300;62743;-24
2022/10/12 03:57:28;;;;;;;10.60;7.30;;;;;;;10.07;82.05;99657.75;102215;1294;75014;-24
2022/10/12 03:59:55;;;;;;;12.30;8.30;;;;;;;9.81;82.50;99658.20;102125;1301;75849;-24
2022/10/12 04:02:22;;;;;;;11.20;7.90;;;;;;;9.55;83.74;99657.33;102058;1299;74069;-24
2022/10/12 04:04:49;;;;;;;9.90;6.70;;;;;;;9.32;85.15;99657.60;102049;1301;64222;-24
2022/10/12 04:07:17;;;;;;;10.50;7.30;;;;;;;9.71;84.59;99661.59;101991;1295;62931;-24
2022/10/12 04:09:43;;;;;;;15.20;7.70;;;;;;;10.11;82.88;99662.55;102197;1301;74161;-24
2022/10/12 04:12:10;;;;;;;11.60;8.30;;;;;;;10.14;82.22;99662.48;102153;1302;77237;-25
2022/10/12 04:14:37;;;;;;;18.40;8.50;;;;;;;9.91;82.83;99668.05;102034;1300;75190;-24
2022/10/12 04:17:04;;;;;;;15.20;8.50;;;;;;;9.61;83.98;99667.47;102116;1302;61838;-24
2022/10/12 04:19:31;;;;;;;18.60;7.40;;;;;;;9.38;85.02;99669.85;102130;1300;61568;-24
2022/10/12 04:21:58;;;;;;;10.60;7.60;;;;;;;9.74;84.59;99672.33;102133;1301;76216;-24
2022/10/12 04:24:25;;;;;;;15.20;8.20;;;;;;;10.18;82.54;99670.02;102130;1301;75467;-24
2022/10/12 04:26:52;;;;;;;11.50;8.90;;;;;;;10.13;82.25;99673.30;102080;1302;74266;-24
2022/10/12 04:29:21;;;;;;;10.60;8.20;;;;;;;9.93;82.59;99680.77;101956;1300;62184;-24
2022/10/12 04:31:48;;;;;;;12.80;8.90;;;;;;;9.72;83.30;99683.94;102267;1295;61822;-24
2022/10/12 04:34:15;;;;;;;10.70;7.60;;;;;;;9.49;84.28;99684.92;102084;1302;76356;-24
2022/10/12 04:36:42;;;;;;;11.50;7.30;;;;;;;9.72;84.44;99688.09;102059;1300;76472;-24
2022/10/12 04:39:09;;;;;;;14.80;9.70;;;;;;;10.15;82.24;99686.38;102132;1295;75215;-25
2022/10/12 04:41:38;;;;;;;13.50;7.30;;;;;;;10.19;82.00;99690.42;102108;1295;61919;-24
2022/10/12 04:44:05;;;;;;;14.80;9.20;;;;;;;10.02;82.19;99694.57;102267;1301;61734;-24
2022/10/12 04:46:33;;;;;;;13.40;9.30;;;;;;;9.75;83.02;99694.83;102223;1298;76427;-24
2022/10/12 04:49:00;;;;;;;12.20;8.90;;;;;;;9.51;84.24;99694.64;102191;1302;75434;-24
2022/10/12 04:51:27;;;;;;;9.60;7.00;;;;;;;9.28;84.77;99699.66;102178;1294;75240;-24
2022/10/12 04:53:54;;;;;;;10.90;7.70;;;;;;;9.56;84.77;99702.45;102196;1302;61535;-24
2022/10/12 04:56:21;;;;;;;12.30;9.00;;;;;;;9.92;82.90;99708.41;102153;1301;62563;-24
2022/10/12 04:58:48;;;;;;;13.70;8.10;;;;;;;9.95;82.49;99712.40;102155;1302;75355;-24
2022/10/12 05:01:15;;;;;;;13.20;8.90;;;;;;;9.61;83.20;99716.03;101989;1301;76575;-24
2022/10/12 05:03:42;;;;;;;16.00;10.50;;;;;;;9.43;84.41;99717.02;102115;1291;75369;-24
2022/10/12 05:06:09;;;;;;;13.90;9.60;;;;;;;9.22;84.99;99721.14;101984;1295;62936;-24
2022/10/12 05:08:36;;;;;;;8.40;5.90;;;;;;;9.00;85.57;99730.03;102202;1302;63041;-24
2022/10/12 05:11:03;;;;;;;9.30;6.40;;;;;;;9.52;84.90;99732.03;102201;1301;76139;-24
2022/10/12 05:13:30;;;;;;;11.90;8.40;;;;;;;10.07;82.42;99733.40;102186;1301;76482;-24
2022/10/12 05:15:58;;;;;;;11.70;8.50;;;;;;;10.13;81.77;99735.30;101922;1301;75273;-24
2022/10/12 05:18:25;;;;;;;13.10;8.70;;;;;;;9.95;81.95;99739.06;102106;1302;62581;-24
2022/10/12 05:20:52;;;;;;;13.30;9.10;;;;;;;9.55;82.69;99740.36;102226;1301;62806;-25
2022/10/12 05:23:23;;;;;;;14.40;9.90;;;;;;;9.16;84.22;99744.73;102161;1302;76390;-24
2022/10/12 05:25:50;;;;;;;7.70;6.00;;;;;;;8.85;86.11;99746.04;102166;1295;76717;-24
2022/10/12 05:28:17;;;;;;;10.50;7.30;;;;;;;9.29;85.67;99746.02;102118;1295;75189;-24
2022/10/12 05:30:44;;;;;;;11.40;8.90;;;;;;;9.75;83.35;99750.48;102215;1301;62825;-24
2022/10/12 05:33:11;;;;;;;11.50;7.90;;;;;;;9.79;82.58;99752.47;101948;1305;62881;-24
2022/10/12 05:35:38;;;;;;;11.70;8.30;;;;;;;9.64;82.74;99754.70;102207;1296;76561;-24
2022/10/12 05:38:11;;;;;;;14.30;9.80;;;;;;;9.44;83.20;99751.80;102236;1302;77220;-24
2022/10/12 05:40:38;;;;;;;11.10;8.20;;;;;;;9.13;84.31;99756.94;102118;1299;74923;-24
2022/10/12 05:43:05;;;;;;;8.50;6.60;;;;;;;8.97;85.21;99763.65;102223;1302;64283;-24
2022/10/12 05:45:32;;;;;;;12.20;6.80;;;;;;;9.31;84.10;99765.45;102091;1296;61902;-24
2022/10/12 05:47:59;;;;;;;10.70;8.30;;;;;;;9.47;82.65;99768.05;101987;1301;76326;-24
2022/10/12 05:50:26;;;;;;;9.50;7.10;;;;;;;9.60;82.98;99771.05;102184;1301;75979;-24
2022/10/12 05:52:53;;;;;;;10.10;7.20;;;;;;;9.50;82.48;99773.27;102172;1301;75186;-24
2022/10/12 05:55:20;;;;;;;10.70;8.00;;;;;;;9.26;83.87;99777.92;102128;1301;61792;-24
2022/10/12 05:57:48;;;;;;;11.40;8.10;;;;;;;9.04;84.67;99780.52;102014;1300;62561;-24
2022/10/12 06:00:17;;;;;;;7.60;5.90;;;;;;;8.78;85.47;99786.29;102022;1302;74941;-24
2022/10/12 06:02:45;;;;;;;10.60;7.10;;;;;;;9.01;84.54;99782.95;102105;1302;76762;-24
2022/10/12 06:05:12;;;;;;;10.50;7.00;;;;;;;9.27;83.26;99787.91;102167;1302;75124;-24
2022/10/12 06:07:39;;;;;;;8.40;6.40;;;;;;;9.44;82.67;99789.45;102198;1302;61927;-25
2022/10/12 06:10:07;;;;;;;8.10;6.00;;;;;;;9.40;82.62;99794.70;102259;1302;62893;-24
2022/10/12 06:12:34;;;;;;;9.70;7.70;;;;;;;9.30;82.86;99797.39;102008;1306;75366;-24
2022/10/12 06:15:02;;;;;;;10.10;7.40;;;;;;;9.16;82.91;99800.02;102211;1301;76913;-24
2022/10/12 06:17:29;;;;;;;7.30;4.70;;;;;;;8.95;83.58;99800.62;102105;1302;74140;-24
2022/10/12 06:19:57;;;;;;;7.40;4.90;;;;;;;9.34;83.17;99803.73;102183;1299;61605;-24
2022/10/12 06:22:24;;;;;;;10.20;7.10;;;;;;;9.85;81.00;99806.72;102096;1295;61515;-24
2022/10/12 06:24:51;;;;;;;9.20;6.70;;;;;;;9.96;80.95;99811.14;102222;1299;76461;-24
2022/10/12 06:27:19;;;;;;;9.60;6.90;;;;;;;9.78;80.47;99812.36;101989;1300;75878;-24
2022/10/12 06:29:46;;;;;;;10.30;7.70;;;;;;;9.44;81.03;99810.52;102129;1300;75213;-24
2022/10/12 06:32:13;;;;;;;11.50;8.20;;;;;;;9.19;82.28;99812.33;102087;1301;62862;-24
2022/10/12 06:34:40;;;;;;;6.70;4.90;;;;;;;9.12;82.60;99815.41;102122;1283;61115;-24
2022/10/12 06:37:07;;;;;;;6.70;4.80;;;;;;;9.62;81.99;99813.92;102135;1291;75547;-24
2022/10/12 06:39:55;;;;;;;10.50;7.10;;;;;;;10.30;80.30;99813.58;102227;1302;75699;-24
2022/10/12 06:42:22;;;;;;;10.50;7.10;;;;;;;10.44;79.12;99812.69;102224;1300;74015;-24
2022/10/12 06:44:49;;;;;;;8.70;6.40;;;;;;;10.27;78.90;99819.36;102060;1300;62819;-24
2022/10/12 06:47:16;;;;;;;9.10;7.10;;;;;;;10.06;79.21;99821.43;102184;1300;61742;-24
2022/10/12 06:49:43;;;;;;;8.40;6.60;;;;;;;9.81;80.17;99821.34;102101;1299;76382;-24
2022/10/12 06:52:10;;;;;;;7.80;5.50;;;;;;;9.58;81.52;99827.15;102203;1301;76890;-25
2022/10/12 06:54:37;;;;;;;7.90;5.50;;;;;;;9.93;80.89;99831.18;102213;1302;74971;-25
2022/10/12 06:57:05;;;;;;;9.90;6.70;;;;;;;10.39;79.24;99832.09;102067;1302;62638;-25
2022/10/12 06:59:32;;;;;;;8.20;6.30;;;;;;;10.34;78.53;99831.40;102095;1299;62828;-25
2022/10/12 07:01:59;;;;;;;8.70;6.80;;;;;;;9.89;79.43;99835.59;102175;1300;76622;-25
2022/10/12 07:04:26;;;;;;;14.00;7.30;;;;;;;9.77;80.41;99839.98;102078;1302;76687;-25
2022/10/12 07:06:53;;;;;;;10.70;7.90;;;;;;;9.66;80.83;99837.74;101940;1296;72941;-24
2022/10/12 07:09:21;;;;;;;6.80;4.90;;;;;;;9.52;81.48;99840.02;102052;1301;64042;-25
2022/10/12 07:11:48;;;;;;;8.20;4.90;;;;;;;9.86;80.78;99841.11;102254;1302;62755;-25
2022/10/12 07:14:15;;;;;;;8.60;5.80;;;;;;;10.33;78.75;99834.74;102159;1305;76553;-25
2022/10/12 07:16:42;;;;;;;9.20;7.10;;;;;;;10.40;78.43;99838.27;102116;1301;74619;-25
2022/10/12 07:19:09;;;;;;;10.20;6.30;;;;;;;10.28;78.91;99838.52;102088;1298;75243;-25
2022/10/12 07:21:36;;;;;;;8.50;6.60;;;;;;;10.23;78.93;99833.33;101961;1298;61608;-27
2022/10/12 07:24:03;;;;;;;8.90;6.30;;;;;;;10.09;79.12;99831.52;101988;1301;63042;-25
2022/10/12 07:26:31;;;;;;;6.80;5.00;;;;;;;9.91;79.65;99832.12;101980;1290;75110;-25
2022/10/12 07:29:00;;;;;;;7.40;5.60;;;;;;;10.26;79.21;99828.47;101960;1297;76658;-25
2022/10/12 07:31:28;;;;;;;8.10;6.00;;;;;;;10.71;77.09;99830.80;102163;1303;73988;-25
2022/10/12 07:33:55;;;;;;;9.50;6.50;;;;;;;10.77;77.00;99834.38;102125;1302;62910;-25
2022/10/12 07:36:22;;;;;;;8.50;5.80;;;;;;;10.51;77.48;99833.21;102206;1288;61062;-25
2022/10/12 07:38:50;;;;;;;7.30;5.80;;;;;;;10.27;77.94;99830.46;102205;1302;75073;-25
2022/10/12 07:41:18;;;;;;;9.80;6.50;;;;;;;10.10;78.24;99831.10;102184;1300;75968;-25
2022/10/12 07:43:45;;;;;;;7.40;5.40;;;;;;;9.85;79.45;99836.38;102106;1298;73210;-25
2022/10/12 07:46:12;;;;;;;8.20;5.00;;;;;;;10.10;79.79;99835.92;102169;1302;61531;-25
2022/10/12 07:48:40;;;;;;;8.90;5.90;;;;;;;10.64;78.12;99831.64;102127;1299;62096;-25
2022/10/12 07:51:15;;;;;;;8.20;6.50;;;;;;;10.73;77.90;99839.87;102181;1300;76250;-25
2022/10/12 07:53:42;;;;;;;8.90;6.00;;;;;;;10.39;77.79;99840.90;102191;1299;76733;-25
2022/10/12 07:56:13;;;;;;;8.10;5.50;;;;;;;10.27;77.60;99838.59;102245;1302;74915;-25
2022/10/12 07:58:42;;;;;;;9.00;6.00;;;;;;;10.13;77.90;99835.67;102104;1301;63407;-25
2022/10/12 08:01:10;;;;;;;8.40;6.50;;;;;;;9.97;78.08;99836.73;101961;1298;63204;-25
2022/10/12 08:03:37;;;;;;;6.50;4.40;;;;;;;9.89;78.93;99837.51;102100;1299;75171;-25
2022/10/12 08:06:08;;;;;;;6.60;4.80;;;;;;;10.29;78.68;99831.71;102127;1302;75767;-24
2022/10/12 08:08:36;;;;;;;9.20;6.40;;;;;;;10.88;76.59;99832.42;102051;1301;75514;-25
2022/10/12 08:11:03;;;;;;;7.60;5.70;;;;;;;10.91;76.19;99835.34;102129;1292;62688;-25
2022/10/12 08:13:31;;;;;;;10.60;7.00;;;;;;;10.62;76.32;99832.41;102102;1302;61769;-25
2022/10/12 08:15:59;;;;;;;7.90;6.30;;;;;;;10.35;77.70;99835.65;102135;1297;76575;-25
2022/10/12 08:18:26;;;;;;;8.40;6.10;;;;;;;10.26;77.93;99836.04;102083;1302;76743;-25
2022/10/12 08:20:53;;;;;;;9.20;6.40;;;;;;;10.18;77.41;99836.08;102296;1297;73304;-24
2022/10/12 08:23:20;;;;;;;9.20;4.70;;;;;;;10.15;78.20;99835.06;102103;1300;64442;-25
2022/10/12 08:25:56;;;;;;;8.90;5.80;;;;;;;10.32;77.78;99834.84;101927;1301;62826;-25
2022/10/12 08:28:24;;;;;;;7.70;5.70;;;;;;;10.76;75.87;99841.53;101988;1299;75108;-25
2022/10/12 08:30:51;;;;;;;7.20;5.30;;;;;;;10.84;75.92;99842.23;102170;1302;76737;-25
2022/10/12 08:33:18;;;;;;;9.20;6.20;;;;;;;10.91;75.67;99842.30;102010;1302;75203;-25
2022/10/12 08:35:46;;;;;;;8.90;5.70;;;;;;;10.77;75.47;99842.85;102086;1303;63134;-25
2022/10/12 08:38:14;;;;;;;8.50;6.10;;;;;;;10.46;76.55;99842.75;102184;1302;62853;-25
2022/10/12 08:40:51;;;;;;;7.90;6.10;;;;;;;10.27;77.45;99844.48;101953;1299;76290;-25
2022/10/12 08:43:52;;;;;;;9.20;4.00;;;;;;;10.21;77.67;99841.11;102026;1294;76733;-25
2022/10/12 08:46:20;;;;;;;5.60;4.10;;;;;;;10.97;76.02;99844.58;102118;1301;75589;-25
2022/10/12 08:48:57;;;;;;;8.90;5.90;;;;;;;11.40;74.43;99848.38;102210;1299;61822;-25
2022/10/12 08:51:26;;;;;;;10.40;6.60;;;;;;;11.10;73.57;99846.00;102180;1302;62728;-25
2022/10/12 08:54:00;;;;;;;30.10;6.70;;;;;;;11.02;74.19;99850.36;101971;1297;76356;-25
2022/10/12 08:56:27;;;;;;;9.80;6.70;;;;;;;10.86;74.87;99846.81;101978;1300;75579;-25
2022/10/12 08:58:54;;;;;;;9.50;6.70;;;;;;;10.79;75.19;99842.89;102163;1300;75189;-25
2022/10/12 09:01:36;;;;;;;10.30;7.00;;;;;;;10.66;75.57;99845.20;101971;1302;62883;-25
2022/10/12 09:04:48;;;;;;;18.20;5.00;;;;;;;10.64;76.83;99843.09;101961;1304;62773;-25
2022/10/12 09:07:33;;;;;;;8.50;5.30;;;;;;;11.23;74.24;99848.73;102114;1301;75478;-25
2022/10/12 09:10:08;;;;;;;8.80;5.30;;;;;;;11.60;72.71;99851.83;102067;1294;76746;-25
2022/10/12 09:12:48;;;;;;;8.20;5.60;;;;;;;11.67;72.98;99851.67;101925;1305;75141;-25
2022/10/12 09:15:25;;;;;;;7.40;6.20;;;;;;;11.64;72.92;99853.41;101922;1300;62911;-25
2022/10/12 09:17:54;;;;;;;7.60;5.60;;;;;;;11.58;72.66;99847.92;101881;1305;61549;-25
2022/10/12 09:20:40;;;;;;;12.50;6.40;;;;;;;11.50;72.66;99848.70;102088;1301;75399;-25
2022/10/12 09:23:22;;;;;;;9.30;6.90;;;;;;;11.36;73.15;99852.33;101883;1302;75479;-25
2022/10/12 09:25:49;;;;;;;10.10;7.50;;;;;;;11.12;73.13;99850.16;102113;1303;74958;-25
2022/10/12 09:28:33;;;;;;;7.00;4.00;;;;;;;11.07;73.82;99853.14;101914;1303;64200;-24
2022/10/12 09:31:20;;;;;;;7.10;5.10;;;;;;;11.80;72.88;99855.73;102111;1300;62641;-25
2022/10/12 09:33:53;;;;;;;15.70;7.50;;;;;;;12.48;70.37;99858.36;102187;1301;75360;-25
2022/10/12 09:36:21;;;;;;;10.10;6.90;;;;;;;12.41;70.00;99855.04;101891;1294;75938;-25
2022/10/12 09:38:48;;;;;;;10.00;6.80;;;;;;;12.18;69.99;99855.24;101968;1302;75219;-24
2022/10/12 09:41:24;;;;;;;13.20;8.40;;;;;;;11.80;70.77;99850.84;102037;1296;62895;-25
2022/10/12 09:43:54;;;;;;;11.40;7.90;;;;;;;11.22;72.68;99851.76;101935;1303;61535;-24
2022/10/12 09:46:50;;;;;;;10.30;7.30;;;;;;;11.25;73.07;99850.17;101996;1300;75365;-25
2022/10/12 09:49:18;;;;;;;13.40;9.10;;;;;;;11.09;73.66;99848.66;102209;1293;76854;-25
2022/10/12 09:51:45;;;;;;;15.20;8.70;;;;;;;10.87;73.75;99850.33;102086;1301;74155;-25
2022/10/12 09:54:18;;;;;;;14.50;8.50;;;;;;;10.93;74.42;99846.77;101915;1294;61674;-25
2022/10/12 09:56:48;;;;;;;11.70;6.90;;;;;;;10.95;74.77;99849.27;101992;1301;62586;-24
2022/10/12 09:59:35;;;;;;;9.80;6.30;;;;;;;11.71;72.99;99849.08;101960;1304;76432;-25
2022/10/12 10:02:03;;;;;;;8.80;7.10;;;;;;;12.24;70.05;99846.92;101933;1304;76744;-25
2022/10/12 10:04:31;;;;;;;11.90;8.50;;;;;;;12.37;69.43;99845.81;102211;1301;73210;-25
2022/10/12 10:07:20;;;;;;;15.20;9.50;;;;;;;12.21;69.99;99848.73;102183;1299;61910;-25
2022/10/12 10:09:48;;;;;;;11.10;9.40;;;;;;;11.98;70.84;99846.42;102153;1299;61986;-25
2022/10/12 10:12:18;;;;;;;10.70;8.40;;;;;;;11.89;70.89;99845.36;101953;1303;76598;-25
2022/10/12 10:14:45;;;;;;;11.70;9.10;;;;;;;11.58;72.38;99844.13;102219;1301;77100;-25
2022/10/12 10:17:21;;;;;;;12.10;9.30;;;;;;;11.62;73.11;99842.46;102174;1301;73904;-25
2022/10/12 10:19:53;;;;;;;12.40;8.60;;;;;;;11.78;72.88;99843.34;101887;1298;61796;-25
2022/10/12 10:22:20;;;;;;;16.60;10.20;;;;;;;11.80;72.04;99843.72;101841;1300;62065;-24
2022/10/12 10:24:56;;;;;;;13.60;10.40;;;;;;;11.71;72.77;99841.95;102207;1293;76442;-25
2022/10/12 10:27:36;;;;;;;15.60;9.70;;;;;;;11.49;73.57;99837.46;102143;1301;75702;-25
2022/10/12 10:30:13;;;;;;;18.80;11.20;;;;;;;11.34;74.29;99841.83;102165;1301;74145;-25
2022/10/12 10:33:12;;;;;;;7.40;6.00;;;;;;;11.43;75.04;99838.75;102154;1302;63535;-25
2022/10/12 10:35:39;;;;;;;10.10;7.60;;;;;;;12.20;71.98;99837.15;102048;1298;61144;-25
2022/10/12 10:38:14;;;;;;;12.30;8.90;;;;;;;12.54;70.29;99833.55;102087;1294;76342;-25
2022/10/12 10:40:41;;;;;;;15.00;9.80;;;;;;;12.36;70.41;99831.98;101727;1307;76754;-25
2022/10/12 10:43:25;;;;;;;12.60;8.20;;;;;;;12.37;70.56;99829.33;101984;1302;73929;-25
2022/10/12 10:45:54;;;;;;;10.10;7.80;;;;;;;12.31;71.39;99828.83;101940;1302;61580;-25
2022/10/12 10:48:23;;;;;;;17.20;10.70;;;;;;;12.25;72.05;99834.20;102121;1302;62573;-25
2022/10/12 10:50:55;;;;;;;11.80;9.30;;;;;;;12.11;72.22;99831.36;102023;1302;76287;-25
2022/10/12 10:53:24;;;;;;;25.90;10.10;;;;;;;12.20;72.07;99833.71;102111;1297;77151;-25
2022/10/12 10:56:10;;;;;;;14.70;9.60;;;;;;;12.15;72.27;99831.81;102000;1304;75240;-24
2022/10/12 10:58:42;;;;;;;18.20;10.20;;;;;;;11.95;73.39;99826.30;102043;1294;63082;-25
2022/10/12 11:01:37;;;;;;;11.80;7.70;;;;;;;11.65;74.58;99829.51;101992;1302;61865;-24
2022/10/12 11:04:14;;;;;;;12.40;9.10;;;;;;;12.41;72.48;99828.03;102045;1284;75934;-25
2022/10/12 11:06:43;;;;;;;12.90;8.30;;;;;;;13.33;68.33;99826.36;102047;1303;76885;-25
2022/10/12 11:09:17;;;;;;;14.10;9.50;;;;;;;13.72;67.25;99828.33;102062;1302;75198;-25
2022/10/12 11:11:46;;;;;;;17.10;9.40;;;;;;;13.69;66.22;99827.84;101924;1302;61854;-25
2022/10/12 11:14:15;;;;;;;12.70;8.20;;;;;;;13.65;66.18;99828.11;101974;1304;62861;-24
2022/10/12 11:16:45;;;;;;;14.50;9.60;;;;;;;13.83;66.27;99828.04;101957;1302;75370;-25
2022/10/12 11:19:16;;;;;;;16.50;10.40;;;;;;;13.73;66.32;99830.15;102055;1304;76267;-25
2022/10/12 11:22:23;;;;;;;17.30;10.90;;;;;;;13.61;65.86;99825.69;102039;1302;74752;-25
2022/10/12 11:24:54;;;;;;;11.30;8.80;;;;;;;13.79;65.84;99825.60;101890;1303;63382;-25
2022/10/12 11:27:38;;;;;;;12.70;9.90;;;;;;;14.29;65.79;99824.82;102112;1292;61777;-25
2022/10/12 11:30:12;;;;;;;12.60;9.00;;;;;;;14.45;63.34;99825.52;102075;1300;76110;-25
2022/10/12 11:32:59;;;;;;;14.20;10.90;;;;;;;14.70;63.58;99822.71;102172;1300;75984;-25
2022/10/12 11:35:33;;;;;;;14.60;9.00;;;;;;;14.84;63.39;99822.74;102220;1301;74414;-25
2022/10/12 11:38:41;;;;;;;11.60;8.70;;;;;;;14.75;62.17;99818.85;101919;1305;62685;-25